Terminal Aerodrome Forecast
Issued by NWS

Home | Current Version | Previous Version | Graphics & Text | Print | Product List | Glossary On
Versions: 1 2 3 4 5 6 7 8 9 10 11 12 13
000
FTUS43 KMPX 150520
TAFRNH
TAF
KRNH 150520Z 1506/1606 32007KT 4SM -SN BR BKN020 OVC035
     FM150900 33012KT P6SM -SHSN SCT015 OVC035
     FM151800 33013G18KT 2SM -SN BR OVC012
     FM160400 33010KT P6SM -SHSN SCT015 BKN040=

USA.gov is the U.S. government's official web portal to all federal, state and local government web resources and services.